sensor_id;sensor_type;location;lat;lon;timestamp;P1;durP1;ratioP1;P2;durP2;ratioP2
4377;SDS011;2203;53.686;9.994;2022-11-15T00:01:34;47.03;;;23.37;;
4377;SDS011;2203;53.686;9.994;2022-11-15T00:04:00;48.00;;;24.70;;
4377;SDS011;2203;53.686;9.994;2022-11-15T00:06:25;54.33;;;26.17;;
4377;SDS011;2203;53.686;9.994;2022-11-15T00:08:51;48.87;;;24.93;;
4377;SDS011;2203;53.686;9.994;2022-11-15T00:11:16;55.03;;;24.83;;
4377;SDS011;2203;53.686;9.994;2022-11-15T00:13:42;49.47;;;24.87;;
4377;SDS011;2203;53.686;9.994;2022-11-15T00:16:08;53.33;;;25.07;;
4377;SDS011;2203;53.686;9.994;2022-11-15T00:18:34;52.20;;;25.07;;
4377;SDS011;2203;53.686;9.994;2022-11-15T00:21:03;54.63;;;26.33;;
4377;SDS011;2203;53.686;9.994;2022-11-15T00:23:31;47.07;;;23.70;;
4377;SDS011;2203;53.686;9.994;2022-11-15T00:25:57;45.17;;;22.70;;
4377;SDS011;2203;53.686;9.994;2022-11-15T00:28:23;44.43;;;24.60;;
4377;SDS011;2203;53.686;9.994;2022-11-15T00:30:49;44.40;;;23.60;;
4377;SDS011;2203;53.686;9.994;2022-11-15T00:33:14;51.40;;;25.37;;
4377;SDS011;2203;53.686;9.994;2022-11-15T00:35:40;50.70;;;24.57;;
4377;SDS011;2203;53.686;9.994;2022-11-15T00:38:06;45.90;;;24.63;;
4377;SDS011;2203;53.686;9.994;2022-11-15T00:40:31;56.00;;;25.90;;
4377;SDS011;2203;53.686;9.994;2022-11-15T00:42:57;46.60;;;24.17;;
4377;SDS011;2203;53.686;9.994;2022-11-15T00:45:23;49.30;;;26.03;;
4377;SDS011;2203;53.686;9.994;2022-11-15T00:47:48;51.80;;;23.87;;
4377;SDS011;2203;53.686;9.994;2022-11-15T00:50:14;48.27;;;22.90;;
4377;SDS011;2203;53.686;9.994;2022-11-15T00:52:39;48.33;;;24.93;;
4377;SDS011;2203;53.686;9.994;2022-11-15T00:55:05;46.43;;;23.80;;
4377;SDS011;2203;53.686;9.994;2022-11-15T00:57:30;54.53;;;25.50;;
4377;SDS011;2203;53.686;9.994;2022-11-15T00:59:56;49.87;;;24.93;;
4377;SDS011;2203;53.686;9.994;2022-11-15T01:02:21;48.13;;;23.10;;
4377;SDS011;2203;53.686;9.994;2022-11-15T01:04:47;51.73;;;24.50;;
4377;SDS011;2203;53.686;9.994;2022-11-15T01:07:12;53.37;;;26.00;;
4377;SDS011;2203;53.686;9.994;2022-11-15T01:09:38;45.67;;;23.70;;
4377;SDS011;2203;53.686;9.994;2022-11-15T01:12:03;45.13;;;22.33;;
4377;SDS011;2203;53.686;9.994;2022-11-15T01:14:29;47.20;;;23.87;;
4377;SDS011;2203;53.686;9.994;2022-11-15T01:16:54;51.33;;;25.43;;
4377;SDS011;2203;53.686;9.994;2022-11-15T01:19:20;46.90;;;23.43;;
4377;SDS011;2203;53.686;9.994;2022-11-15T01:21:48;54.63;;;25.90;;
4377;SDS011;2203;53.686;9.994;2022-11-15T01:24:14;47.80;;;22.97;;
4377;SDS011;2203;53.686;9.994;2022-11-15T01:26:40;50.00;;;23.43;;
4377;SDS011;2203;53.686;9.994;2022-11-15T01:29:05;49.77;;;22.47;;
4377;SDS011;2203;53.686;9.994;2022-11-15T01:31:31;46.17;;;23.70;;
4377;SDS011;2203;53.686;9.994;2022-11-15T01:33:56;48.73;;;24.50;;
4377;SDS011;2203;53.686;9.994;2022-11-15T01:36:21;51.43;;;25.03;;
4377;SDS011;2203;53.686;9.994;2022-11-15T01:38:52;62.27;;;25.40;;
4377;SDS011;2203;53.686;9.994;2022-11-15T01:41:22;50.00;;;24.70;;
4377;SDS011;2203;53.686;9.994;2022-11-15T01:43:52;47.70;;;25.30;;
4377;SDS011;2203;53.686;9.994;2022-11-15T01:46:23;46.07;;;23.53;;
4377;SDS011;2203;53.686;9.994;2022-11-15T01:48:52;52.90;;;24.30;;
4377;SDS011;2203;53.686;9.994;2022-11-15T01:51:19;47.63;;;24.63;;
4377;SDS011;2203;53.686;9.994;2022-11-15T01:53:47;58.90;;;25.23;;
4377;SDS011;2203;53.686;9.994;2022-11-15T01:56:16;47.03;;;22.73;;
4377;SDS011;2203;53.686;9.994;2022-11-15T01:58:44;48.23;;;23.00;;
4377;SDS011;2203;53.686;9.994;2022-11-15T02:01:11;52.10;;;25.20;;
4377;SDS011;2203;53.686;9.994;2022-11-15T02:03:49;57.87;;;26.20;;
4377;SDS011;2203;53.686;9.994;2022-11-15T02:06:23;43.50;;;23.60;;
4377;SDS011;2203;53.686;9.994;2022-11-15T02:08:49;53.97;;;26.77;;
4377;SDS011;2203;53.686;9.994;2022-11-15T02:11:14;46.57;;;22.83;;
4377;SDS011;2203;53.686;9.994;2022-11-15T02:13:40;52.67;;;25.30;;
4377;SDS011;2203;53.686;9.994;2022-11-15T02:18:58;45.10;;;24.50;;
4377;SDS011;2203;53.686;9.994;2022-11-15T02:24:16;45.17;;;23.07;;
4377;SDS011;2203;53.686;9.994;2022-11-15T02:26:57;51.53;;;24.30;;
4377;SDS011;2203;53.686;9.994;2022-11-15T02:32:19;46.13;;;22.30;;
4377;SDS011;2203;53.686;9.994;2022-11-15T02:40:11;48.83;;;23.50;;
4377;SDS011;2203;53.686;9.994;2022-11-15T02:42:45;47.13;;;21.77;;
4377;SDS011;2203;53.686;9.994;2022-11-15T02:45:37;42.73;;;21.83;;
4377;SDS011;2203;53.686;9.994;2022-11-15T02:48:05;59.00;;;22.90;;
4377;SDS011;2203;53.686;9.994;2022-11-15T02:50:31;43.67;;;22.43;;
4377;SDS011;2203;53.686;9.994;2022-11-15T02:52:57;46.40;;;22.70;;
4377;SDS011;2203;53.686;9.994;2022-11-15T02:55:36;44.30;;;21.30;;
4377;SDS011;2203;53.686;9.994;2022-11-15T03:06:46;43.17;;;21.50;;
4377;SDS011;2203;53.686;9.994;2022-11-15T03:12:08;49.27;;;22.40;;
4377;SDS011;2203;53.686;9.994;2022-11-15T03:14:40;41.80;;;22.17;;
4377;SDS011;2203;53.686;9.994;2022-11-15T03:17:23;42.50;;;21.93;;
4377;SDS011;2203;53.686;9.994;2022-11-15T03:19:53;45.67;;;21.80;;
4377;SDS011;2203;53.686;9.994;2022-11-15T03:22:20;40.53;;;21.87;;
4377;SDS011;2203;53.686;9.994;2022-11-15T03:24:47;48.63;;;22.23;;
4377;SDS011;2203;53.686;9.994;2022-11-15T03:27:17;45.30;;;21.73;;
4377;SDS011;2203;53.686;9.994;2022-11-15T03:29:48;43.30;;;21.53;;
4377;SDS011;2203;53.686;9.994;2022-11-15T03:32:20;43.00;;;20.93;;
4377;SDS011;2203;53.686;9.994;2022-11-15T03:34:50;50.03;;;22.40;;
4377;SDS011;2203;53.686;9.994;2022-11-15T03:37:20;43.47;;;21.23;;
4377;SDS011;2203;53.686;9.994;2022-11-15T03:39:47;40.53;;;21.00;;
4377;SDS011;2203;53.686;9.994;2022-11-15T03:42:21;47.30;;;22.47;;
4377;SDS011;2203;53.686;9.994;2022-11-15T03:44:59;39.83;;;21.23;;
4377;SDS011;2203;53.686;9.994;2022-11-15T03:50:48;38.67;;;19.70;;
4377;SDS011;2203;53.686;9.994;2022-11-15T03:53:13;39.37;;;21.03;;
4377;SDS011;2203;53.686;9.994;2022-11-15T03:55:39;45.83;;;21.40;;
4377;SDS011;2203;53.686;9.994;2022-11-15T03:58:05;38.33;;;19.80;;
4377;SDS011;2203;53.686;9.994;2022-11-15T04:00:30;40.67;;;19.87;;
4377;SDS011;2203;53.686;9.994;2022-11-15T04:02:55;41.80;;;21.30;;
4377;SDS011;2203;53.686;9.994;2022-11-15T04:05:21;37.90;;;19.60;;
4377;SDS011;2203;53.686;9.994;2022-11-15T04:07:46;44.20;;;21.67;;
4377;SDS011;2203;53.686;9.994;2022-11-15T04:10:12;34.07;;;18.70;;
4377;SDS011;2203;53.686;9.994;2022-11-15T04:12:42;41.23;;;19.20;;
4377;SDS011;2203;53.686;9.994;2022-11-15T04:18:09;40.63;;;18.70;;
4377;SDS011;2203;53.686;9.994;2022-11-15T04:20:28;39.03;;;20.80;;
4377;SDS011;2203;53.686;9.994;2022-11-15T04:23:14;41.00;;;20.57;;
4377;SDS011;2203;53.686;9.994;2022-11-15T04:26:03;41.57;;;19.73;;
4377;SDS011;2203;53.686;9.994;2022-11-15T04:28:30;38.70;;;18.60;;
4377;SDS011;2203;53.686;9.994;2022-11-15T04:30:55;39.10;;;20.00;;
4377;SDS011;2203;53.686;9.994;2022-11-15T04:33:21;36.60;;;18.80;;
4377;SDS011;2203;53.686;9.994;2022-11-15T04:35:47;36.97;;;18.50;;
4377;SDS011;2203;53.686;9.994;2022-11-15T04:38:33;36.90;;;19.27;;
4377;SDS011;2203;53.686;9.994;2022-11-15T04:40:58;33.80;;;17.57;;
4377;SDS011;2203;53.686;9.994;2022-11-15T04:43:24;38.77;;;20.37;;
4377;SDS011;2203;53.686;9.994;2022-11-15T04:45:49;37.97;;;19.97;;
4377;SDS011;2203;53.686;9.994;2022-11-15T04:48:15;42.00;;;19.10;;
4377;SDS011;2203;53.686;9.994;2022-11-15T04:50:40;39.40;;;19.87;;
4377;SDS011;2203;53.686;9.994;2022-11-15T04:53:05;30.73;;;17.30;;
4377;SDS011;2203;53.686;9.994;2022-11-15T04:55:31;33.73;;;18.60;;
4377;SDS011;2203;53.686;9.994;2022-11-15T04:57:57;34.97;;;18.03;;
4377;SDS011;2203;53.686;9.994;2022-11-15T05:00:24;38.40;;;18.07;;
4377;SDS011;2203;53.686;9.994;2022-11-15T05:02:50;33.90;;;18.40;;
4377;SDS011;2203;53.686;9.994;2022-11-15T05:05:34;31.27;;;16.97;;
4377;SDS011;2203;53.686;9.994;2022-11-15T05:07:59;36.03;;;17.13;;
4377;SDS011;2203;53.686;9.994;2022-11-15T05:10:25;32.80;;;17.00;;
4377;SDS011;2203;53.686;9.994;2022-11-15T05:12:50;38.60;;;18.73;;
4377;SDS011;2203;53.686;9.994;2022-11-15T05:15:15;38.00;;;19.80;;
4377;SDS011;2203;53.686;9.994;2022-11-15T05:17:41;36.60;;;18.53;;
4377;SDS011;2203;53.686;9.994;2022-11-15T05:20:06;35.17;;;18.37;;
4377;SDS011;2203;53.686;9.994;2022-11-15T05:22:32;32.70;;;16.53;;
4377;SDS011;2203;53.686;9.994;2022-11-15T05:24:57;32.50;;;17.90;;
4377;SDS011;2203;53.686;9.994;2022-11-15T05:27:23;36.20;;;19.10;;
4377;SDS011;2203;53.686;9.994;2022-11-15T05:29:48;35.33;;;18.07;;
4377;SDS011;2203;53.686;9.994;2022-11-15T05:32:14;36.37;;;18.93;;
4377;SDS011;2203;53.686;9.994;2022-11-15T05:34:39;33.53;;;18.00;;
4377;SDS011;2203;53.686;9.994;2022-11-15T05:37:04;36.30;;;16.73;;
4377;SDS011;2203;53.686;9.994;2022-11-15T05:39:30;33.50;;;17.53;;
4377;SDS011;2203;53.686;9.994;2022-11-15T05:41:56;40.63;;;18.10;;
4377;SDS011;2203;53.686;9.994;2022-11-15T05:44:25;33.77;;;17.17;;
4377;SDS011;2203;53.686;9.994;2022-11-15T05:46:51;35.63;;;16.87;;
4377;SDS011;2203;53.686;9.994;2022-11-15T05:49:22;36.43;;;17.63;;
4377;SDS011;2203;53.686;9.994;2022-11-15T05:51:50;37.63;;;17.93;;
4377;SDS011;2203;53.686;9.994;2022-11-15T05:54:16;34.00;;;18.70;;
4377;SDS011;2203;53.686;9.994;2022-11-15T05:56:42;33.60;;;17.30;;
4377;SDS011;2203;53.686;9.994;2022-11-15T05:59:08;33.90;;;16.57;;
4377;SDS011;2203;53.686;9.994;2022-11-15T06:01:34;32.87;;;15.90;;
4377;SDS011;2203;53.686;9.994;2022-11-15T06:04:00;38.30;;;16.67;;
4377;SDS011;2203;53.686;9.994;2022-11-15T06:06:26;35.00;;;17.07;;
4377;SDS011;2203;53.686;9.994;2022-11-15T06:08:52;32.83;;;15.40;;
4377;SDS011;2203;53.686;9.994;2022-11-15T06:11:18;33.17;;;17.87;;
4377;SDS011;2203;53.686;9.994;2022-11-15T06:13:43;32.67;;;17.50;;
4377;SDS011;2203;53.686;9.994;2022-11-15T06:16:09;35.63;;;17.90;;
4377;SDS011;2203;53.686;9.994;2022-11-15T06:18:35;40.43;;;16.87;;
4377;SDS011;2203;53.686;9.994;2022-11-15T06:21:01;32.13;;;17.30;;
4377;SDS011;2203;53.686;9.994;2022-11-15T06:23:26;36.93;;;17.33;;
4377;SDS011;2203;53.686;9.994;2022-11-15T06:25:52;29.80;;;17.20;;
4377;SDS011;2203;53.686;9.994;2022-11-15T06:28:17;30.60;;;16.37;;
4377;SDS011;2203;53.686;9.994;2022-11-15T06:30:43;33.17;;;17.40;;
4377;SDS011;2203;53.686;9.994;2022-11-15T06:33:08;38.93;;;17.80;;
4377;SDS011;2203;53.686;9.994;2022-11-15T06:35:34;32.17;;;16.47;;
4377;SDS011;2203;53.686;9.994;2022-11-15T06:38:10;30.10;;;15.67;;
4377;SDS011;2203;53.686;9.994;2022-11-15T06:40:36;38.83;;;17.40;;
4377;SDS011;2203;53.686;9.994;2022-11-15T06:43:03;35.63;;;18.20;;
4377;SDS011;2203;53.686;9.994;2022-11-15T06:45:29;31.87;;;16.40;;
4377;SDS011;2203;53.686;9.994;2022-11-15T06:47:55;34.00;;;17.00;;
4377;SDS011;2203;53.686;9.994;2022-11-15T06:50:20;33.93;;;16.87;;
4377;SDS011;2203;53.686;9.994;2022-11-15T06:52:46;41.13;;;16.80;;
4377;SDS011;2203;53.686;9.994;2022-11-15T06:55:11;29.80;;;17.17;;
4377;SDS011;2203;53.686;9.994;2022-11-15T06:57:37;30.90;;;16.80;;
4377;SDS011;2203;53.686;9.994;2022-11-15T07:00:08;33.23;;;16.57;;
4377;SDS011;2203;53.686;9.994;2022-11-15T07:02:34;27.97;;;16.00;;
4377;SDS011;2203;53.686;9.994;2022-11-15T07:04:59;33.50;;;17.10;;
4377;SDS011;2203;53.686;9.994;2022-11-15T07:07:25;29.20;;;16.10;;
4377;SDS011;2203;53.686;9.994;2022-11-15T07:09:50;28.47;;;15.53;;
4377;SDS011;2203;53.686;9.994;2022-11-15T07:12:16;30.53;;;15.53;;
4377;SDS011;2203;53.686;9.994;2022-11-15T07:14:41;32.43;;;16.13;;
4377;SDS011;2203;53.686;9.994;2022-11-15T07:17:06;32.03;;;17.60;;
4377;SDS011;2203;53.686;9.994;2022-11-15T07:19:32;33.37;;;16.60;;
4377;SDS011;2203;53.686;9.994;2022-11-15T07:21:57;35.20;;;18.17;;
4377;SDS011;2203;53.686;9.994;2022-11-15T07:24:22;39.87;;;17.73;;
4377;SDS011;2203;53.686;9.994;2022-11-15T07:26:48;30.40;;;16.20;;
4377;SDS011;2203;53.686;9.994;2022-11-15T07:29:13;31.43;;;17.70;;
4377;SDS011;2203;53.686;9.994;2022-11-15T07:31:39;31.57;;;18.23;;
4377;SDS011;2203;53.686;9.994;2022-11-15T07:34:04;33.10;;;16.60;;
4377;SDS011;2203;53.686;9.994;2022-11-15T07:36:30;34.43;;;16.47;;
4377;SDS011;2203;53.686;9.994;2022-11-15T07:38:55;37.27;;;17.90;;
4377;SDS011;2203;53.686;9.994;2022-11-15T07:41:20;35.70;;;19.43;;
4377;SDS011;2203;53.686;9.994;2022-11-15T07:43:46;33.60;;;16.13;;
4377;SDS011;2203;53.686;9.994;2022-11-15T07:46:11;31.10;;;17.00;;
4377;SDS011;2203;53.686;9.994;2022-11-15T07:48:37;29.70;;;16.63;;
4377;SDS011;2203;53.686;9.994;2022-11-15T07:51:05;32.40;;;17.30;;
4377;SDS011;2203;53.686;9.994;2022-11-15T07:53:30;30.03;;;16.53;;
4377;SDS011;2203;53.686;9.994;2022-11-15T07:55:56;29.43;;;16.33;;
4377;SDS011;2203;53.686;9.994;2022-11-15T07:58:21;28.20;;;16.70;;
4377;SDS011;2203;53.686;9.994;2022-11-15T08:00:46;30.77;;;16.70;;
4377;SDS011;2203;53.686;9.994;2022-11-15T08:03:13;32.30;;;16.03;;
4377;SDS011;2203;53.686;9.994;2022-11-15T08:05:40;38.80;;;17.00;;
4377;SDS011;2203;53.686;9.994;2022-11-15T08:08:07;40.90;;;16.73;;
4377;SDS011;2203;53.686;9.994;2022-11-15T08:10:33;31.00;;;15.63;;
4377;SDS011;2203;53.686;9.994;2022-11-15T08:13:06;32.47;;;17.10;;
4377;SDS011;2203;53.686;9.994;2022-11-15T08:15:34;30.10;;;16.53;;
4377;SDS011;2203;53.686;9.994;2022-11-15T08:18:02;32.83;;;17.00;;
4377;SDS011;2203;53.686;9.994;2022-11-15T08:20:29;29.77;;;16.40;;
4377;SDS011;2203;53.686;9.994;2022-11-15T08:22:58;28.50;;;15.60;;
4377;SDS011;2203;53.686;9.994;2022-11-15T08:25:25;28.40;;;16.73;;
4377;SDS011;2203;53.686;9.994;2022-11-15T08:27:52;30.20;;;16.33;;
4377;SDS011;2203;53.686;9.994;2022-11-15T08:30:18;32.70;;;15.90;;
4377;SDS011;2203;53.686;9.994;2022-11-15T08:32:44;30.80;;;17.10;;
4377;SDS011;2203;53.686;9.994;2022-11-15T08:35:09;31.73;;;15.77;;
4377;SDS011;2203;53.686;9.994;2022-11-15T08:37:34;29.00;;;15.70;;
4377;SDS011;2203;53.686;9.994;2022-11-15T08:40:00;34.10;;;16.30;;
4377;SDS011;2203;53.686;9.994;2022-11-15T08:42:26;29.57;;;16.40;;
4377;SDS011;2203;53.686;9.994;2022-11-15T08:44:51;33.67;;;17.00;;
4377;SDS011;2203;53.686;9.994;2022-11-15T08:47:16;28.40;;;15.97;;
4377;SDS011;2203;53.686;9.994;2022-11-15T08:49:42;25.40;;;15.37;;
4377;SDS011;2203;53.686;9.994;2022-11-15T08:52:07;33.00;;;16.97;;
4377;SDS011;2203;53.686;9.994;2022-11-15T08:54:32;34.80;;;18.10;;
4377;SDS011;2203;53.686;9.994;2022-11-15T08:56:58;33.80;;;17.23;;
4377;SDS011;2203;53.686;9.994;2022-11-15T08:59:23;30.10;;;16.67;;
4377;SDS011;2203;53.686;9.994;2022-11-15T09:01:49;35.83;;;15.97;;
4377;SDS011;2203;53.686;9.994;2022-11-15T09:04:14;35.13;;;16.60;;
4377;SDS011;2203;53.686;9.994;2022-11-15T09:06:40;33.00;;;16.67;;
4377;SDS011;2203;53.686;9.994;2022-11-15T09:09:05;28.37;;;15.80;;
4377;SDS011;2203;53.686;9.994;2022-11-15T09:11:31;29.40;;;15.83;;
4377;SDS011;2203;53.686;9.994;2022-11-15T09:13:56;32.17;;;15.00;;
4377;SDS011;2203;53.686;9.994;2022-11-15T09:16:21;35.57;;;15.10;;
4377;SDS011;2203;53.686;9.994;2022-11-15T09:18:47;30.03;;;14.77;;
4377;SDS011;2203;53.686;9.994;2022-11-15T09:21:12;35.13;;;15.10;;
4377;SDS011;2203;53.686;9.994;2022-11-15T09:23:38;28.27;;;15.20;;
4377;SDS011;2203;53.686;9.994;2022-11-15T09:26:04;31.13;;;16.03;;
4377;SDS011;2203;53.686;9.994;2022-11-15T09:28:29;37.83;;;15.20;;
4377;SDS011;2203;53.686;9.994;2022-11-15T09:30:59;27.00;;;14.17;;
4377;SDS011;2203;53.686;9.994;2022-11-15T09:33:25;29.70;;;15.33;;
4377;SDS011;2203;53.686;9.994;2022-11-15T09:35:51;29.43;;;15.50;;
4377;SDS011;2203;53.686;9.994;2022-11-15T09:38:17;26.67;;;15.73;;
4377;SDS011;2203;53.686;9.994;2022-11-15T09:40:42;37.60;;;15.37;;
4377;SDS011;2203;53.686;9.994;2022-11-15T09:48:29;32.27;;;14.97;;
4377;SDS011;2203;53.686;9.994;2022-11-15T09:51:02;29.63;;;15.37;;
4377;SDS011;2203;53.686;9.994;2022-11-15T09:53:32;33.53;;;15.93;;
4377;SDS011;2203;53.686;9.994;2022-11-15T09:56:02;29.73;;;14.80;;
4377;SDS011;2203;53.686;9.994;2022-11-15T09:58:42;29.37;;;15.63;;
4377;SDS011;2203;53.686;9.994;2022-11-15T10:04:10;26.90;;;15.30;;
4377;SDS011;2203;53.686;9.994;2022-11-15T10:06:36;27.37;;;15.20;;
4377;SDS011;2203;53.686;9.994;2022-11-15T10:09:06;41.53;;;16.10;;
4377;SDS011;2203;53.686;9.994;2022-11-15T10:11:36;26.30;;;14.60;;
4377;SDS011;2203;53.686;9.994;2022-11-15T10:14:04;28.00;;;15.77;;
4377;SDS011;2203;53.686;9.994;2022-11-15T10:22:40;29.50;;;14.13;;
4377;SDS011;2203;53.686;9.994;2022-11-15T10:27:34;30.60;;;15.00;;
4377;SDS011;2203;53.686;9.994;2022-11-15T10:30:00;35.37;;;14.63;;
4377;SDS011;2203;53.686;9.994;2022-11-15T10:32:25;29.40;;;14.87;;
4377;SDS011;2203;53.686;9.994;2022-11-15T10:34:51;27.53;;;14.87;;
4377;SDS011;2203;53.686;9.994;2022-11-15T10:37:29;28.13;;;13.43;;
4377;SDS011;2203;53.686;9.994;2022-11-15T10:40:06;28.30;;;13.70;;
4377;SDS011;2203;53.686;9.994;2022-11-15T10:42:43;28.17;;;14.10;;
4377;SDS011;2203;53.686;9.994;2022-11-15T10:45:22;22.37;;;13.80;;
4377;SDS011;2203;53.686;9.994;2022-11-15T10:47:49;25.53;;;13.80;;
4377;SDS011;2203;53.686;9.994;2022-11-15T10:50:30;25.20;;;14.27;;
4377;SDS011;2203;53.686;9.994;2022-11-15T10:52:57;24.80;;;14.27;;
4377;SDS011;2203;53.686;9.994;2022-11-15T10:55:24;25.73;;;13.70;;
4377;SDS011;2203;53.686;9.994;2022-11-15T10:57:53;23.87;;;13.70;;
4377;SDS011;2203;53.686;9.994;2022-11-15T11:02:56;28.90;;;14.30;;
4377;SDS011;2203;53.686;9.994;2022-11-15T11:05:33;26.37;;;13.47;;
4377;SDS011;2203;53.686;9.994;2022-11-15T11:10:28;23.20;;;13.13;;
4377;SDS011;2203;53.686;9.994;2022-11-15T11:12:54;24.43;;;12.77;;
4377;SDS011;2203;53.686;9.994;2022-11-15T11:15:19;27.93;;;13.30;;
4377;SDS011;2203;53.686;9.994;2022-11-15T11:17:54;24.10;;;12.73;;
4377;SDS011;2203;53.686;9.994;2022-11-15T11:32:17;22.37;;;11.97;;
4377;SDS011;2203;53.686;9.994;2022-11-15T11:42:58;21.47;;;11.80;;
4377;SDS011;2203;53.686;9.994;2022-11-15T11:51:49;21.83;;;11.53;;
4377;SDS011;2203;53.686;9.994;2022-11-15T11:57:10;20.50;;;10.97;;
4377;SDS011;2203;53.686;9.994;2022-11-15T11:59:44;30.47;;;11.23;;
4377;SDS011;2203;53.686;9.994;2022-11-15T12:03:02;21.53;;;11.47;;
4377;SDS011;2203;53.686;9.994;2022-11-15T12:05:13;22.60;;;11.37;;
4377;SDS011;2203;53.686;9.994;2022-11-15T12:07:43;26.23;;;10.77;;
4377;SDS011;2203;53.686;9.994;2022-11-15T12:10:23;24.07;;;11.60;;
4377;SDS011;2203;53.686;9.994;2022-11-15T12:15:37;18.17;;;11.23;;
4377;SDS011;2203;53.686;9.994;2022-11-15T12:18:08;28.83;;;12.40;;
4377;SDS011;2203;53.686;9.994;2022-11-15T12:20:39;17.43;;;10.30;;
4377;SDS011;2203;53.686;9.994;2022-11-15T12:34:01;19.70;;;11.10;;
4377;SDS011;2203;53.686;9.994;2022-11-15T12:36:36;17.97;;;11.10;;
4377;SDS011;2203;53.686;9.994;2022-11-15T12:39:07;21.33;;;12.60;;
4377;SDS011;2203;53.686;9.994;2022-11-15T12:41:34;21.67;;;11.30;;
4377;SDS011;2203;53.686;9.994;2022-11-15T12:44:05;16.33;;;9.73;;
4377;SDS011;2203;53.686;9.994;2022-11-15T12:57:30;15.30;;;8.90;;
4377;SDS011;2203;53.686;9.994;2022-11-15T12:59:49;17.27;;;9.60;;
4377;SDS011;2203;53.686;9.994;2022-11-15T13:02:28;21.27;;;11.20;;
4377;SDS011;2203;53.686;9.994;2022-11-15T13:04:55;24.30;;;10.17;;
4377;SDS011;2203;53.686;9.994;2022-11-15T13:17:41;19.73;;;10.40;;
4377;SDS011;2203;53.686;9.994;2022-11-15T13:31:03;21.03;;;10.97;;
4377;SDS011;2203;53.686;9.994;2022-11-15T13:33:32;21.50;;;10.63;;
4377;SDS011;2203;53.686;9.994;2022-11-15T13:36:01;17.37;;;10.10;;
4377;SDS011;2203;53.686;9.994;2022-11-15T13:39:01;16.83;;;9.93;;
4377;SDS011;2203;53.686;9.994;2022-11-15T13:41:28;17.90;;;9.70;;
4377;SDS011;2203;53.686;9.994;2022-11-15T13:43:55;21.47;;;10.20;;
4377;SDS011;2203;53.686;9.994;2022-11-15T13:46:24;20.30;;;10.00;;
4377;SDS011;2203;53.686;9.994;2022-11-15T13:48:55;17.93;;;9.43;;
4377;SDS011;2203;53.686;9.994;2022-11-15T13:51:30;25.03;;;10.03;;
4377;SDS011;2203;53.686;9.994;2022-11-15T13:56:46;16.73;;;10.00;;
4377;SDS011;2203;53.686;9.994;2022-11-15T13:59:23;18.30;;;9.50;;
4377;SDS011;2203;53.686;9.994;2022-11-15T14:02:01;18.90;;;10.70;;
4377;SDS011;2203;53.686;9.994;2022-11-15T14:04:29;17.13;;;9.80;;
4377;SDS011;2203;53.686;9.994;2022-11-15T14:06:58;15.37;;;9.60;;
4377;SDS011;2203;53.686;9.994;2022-11-15T14:14:49;31.93;;;13.83;;
4377;SDS011;2203;53.686;9.994;2022-11-15T14:19:55;22.17;;;9.70;;
4377;SDS011;2203;53.686;9.994;2022-11-15T14:22:28;17.60;;;9.90;;
4377;SDS011;2203;53.686;9.994;2022-11-15T14:25:05;16.30;;;9.40;;
4377;SDS011;2203;53.686;9.994;2022-11-15T14:27:32;19.70;;;10.47;;
4377;SDS011;2203;53.686;9.994;2022-11-15T14:29:58;16.33;;;9.40;;
4377;SDS011;2203;53.686;9.994;2022-11-15T14:32:25;17.23;;;9.93;;
4377;SDS011;2203;53.686;9.994;2022-11-15T14:37:25;15.00;;;8.80;;
4377;SDS011;2203;53.686;9.994;2022-11-15T14:39:59;19.13;;;9.40;;
4377;SDS011;2203;53.686;9.994;2022-11-15T14:42:25;18.93;;;10.00;;
4377;SDS011;2203;53.686;9.994;2022-11-15T14:44:51;21.67;;;8.97;;
4377;SDS011;2203;53.686;9.994;2022-11-15T14:47:17;13.73;;;8.50;;
4377;SDS011;2203;53.686;9.994;2022-11-15T14:49:42;16.40;;;9.70;;
4377;SDS011;2203;53.686;9.994;2022-11-15T14:52:25;16.63;;;10.27;;
4377;SDS011;2203;53.686;9.994;2022-11-15T14:54:52;20.63;;;10.40;;
4377;SDS011;2203;53.686;9.994;2022-11-15T14:57:18;18.90;;;10.00;;
4377;SDS011;2203;53.686;9.994;2022-11-15T14:59:44;26.73;;;9.27;;
4377;SDS011;2203;53.686;9.994;2022-11-15T15:02:17;20.63;;;10.60;;
4377;SDS011;2203;53.686;9.994;2022-11-15T15:04:44;16.33;;;9.37;;
4377;SDS011;2203;53.686;9.994;2022-11-15T15:07:09;16.70;;;9.50;;
4377;SDS011;2203;53.686;9.994;2022-11-15T15:09:35;19.80;;;10.03;;
4377;SDS011;2203;53.686;9.994;2022-11-15T15:12:00;17.73;;;9.73;;
4377;SDS011;2203;53.686;9.994;2022-11-15T15:14:25;15.53;;;10.10;;
4377;SDS011;2203;53.686;9.994;2022-11-15T15:16:51;15.63;;;8.87;;
4377;SDS011;2203;53.686;9.994;2022-11-15T15:19:16;15.97;;;9.60;;
4377;SDS011;2203;53.686;9.994;2022-11-15T15:21:42;16.00;;;9.40;;
4377;SDS011;2203;53.686;9.994;2022-11-15T15:24:08;16.63;;;10.33;;
4377;SDS011;2203;53.686;9.994;2022-11-15T15:26:39;16.60;;;9.53;;
4377;SDS011;2203;53.686;9.994;2022-11-15T15:29:05;26.33;;;10.70;;
4377;SDS011;2203;53.686;9.994;2022-11-15T15:31:30;18.97;;;9.63;;
4377;SDS011;2203;53.686;9.994;2022-11-15T15:33:57;20.47;;;9.20;;
4377;SDS011;2203;53.686;9.994;2022-11-15T15:36:23;18.90;;;9.23;;
4377;SDS011;2203;53.686;9.994;2022-11-15T15:38:48;14.57;;;8.23;;
4377;SDS011;2203;53.686;9.994;2022-11-15T15:41:14;17.60;;;9.10;;
4377;SDS011;2203;53.686;9.994;2022-11-15T15:43:40;29.17;;;9.67;;
4377;SDS011;2203;53.686;9.994;2022-11-15T15:46:12;14.53;;;8.77;;
4377;SDS011;2203;53.686;9.994;2022-11-15T15:48:40;15.50;;;9.37;;
4377;SDS011;2203;53.686;9.994;2022-11-15T15:51:05;17.20;;;9.90;;
4377;SDS011;2203;53.686;9.994;2022-11-15T15:53:31;16.80;;;9.90;;
4377;SDS011;2203;53.686;9.994;2022-11-15T15:55:57;16.20;;;9.90;;
4377;SDS011;2203;53.686;9.994;2022-11-15T15:58:23;14.10;;;9.43;;
4377;SDS011;2203;53.686;9.994;2022-11-15T16:00:48;23.67;;;10.07;;
4377;SDS011;2203;53.686;9.994;2022-11-15T16:03:13;14.83;;;9.57;;
4377;SDS011;2203;53.686;9.994;2022-11-15T16:05:39;20.00;;;9.97;;
4377;SDS011;2203;53.686;9.994;2022-11-15T16:08:04;15.60;;;9.40;;
4377;SDS011;2203;53.686;9.994;2022-11-15T16:10:33;21.57;;;9.83;;
4377;SDS011;2203;53.686;9.994;2022-11-15T16:12:59;23.53;;;10.40;;
4377;SDS011;2203;53.686;9.994;2022-11-15T16:15:29;16.70;;;9.93;;
4377;SDS011;2203;53.686;9.994;2022-11-15T16:17:56;14.80;;;9.27;;
4377;SDS011;2203;53.686;9.994;2022-11-15T16:22:55;21.20;;;10.33;;
4377;SDS011;2203;53.686;9.994;2022-11-15T16:25:20;21.63;;;9.37;;
4377;SDS011;2203;53.686;9.994;2022-11-15T16:27:46;21.50;;;10.07;;
4377;SDS011;2203;53.686;9.994;2022-11-15T16:30:12;17.17;;;9.43;;
4377;SDS011;2203;53.686;9.994;2022-11-15T16:32:39;21.00;;;10.77;;
4377;SDS011;2203;53.686;9.994;2022-11-15T16:35:04;20.90;;;10.87;;
4377;SDS011;2203;53.686;9.994;2022-11-15T16:37:30;18.50;;;9.73;;
4377;SDS011;2203;53.686;9.994;2022-11-15T16:39:56;17.50;;;10.07;;
4377;SDS011;2203;53.686;9.994;2022-11-15T16:42:21;13.10;;;9.33;;
4377;SDS011;2203;53.686;9.994;2022-11-15T16:44:46;17.07;;;9.30;;
4377;SDS011;2203;53.686;9.994;2022-11-15T16:47:18;24.67;;;10.37;;
4377;SDS011;2203;53.686;9.994;2022-11-15T16:49:44;17.00;;;10.10;;
4377;SDS011;2203;53.686;9.994;2022-11-15T16:52:09;18.23;;;9.77;;
4377;SDS011;2203;53.686;9.994;2022-11-15T16:54:35;15.80;;;9.37;;
4377;SDS011;2203;53.686;9.994;2022-11-15T16:57:00;19.77;;;9.40;;
4377;SDS011;2203;53.686;9.994;2022-11-15T16:59:26;26.80;;;10.50;;
4377;SDS011;2203;53.686;9.994;2022-11-15T17:01:51;15.60;;;9.23;;
4377;SDS011;2203;53.686;9.994;2022-11-15T17:04:17;16.23;;;9.53;;
4377;SDS011;2203;53.686;9.994;2022-11-15T17:06:44;21.20;;;10.17;;
4377;SDS011;2203;53.686;9.994;2022-11-15T17:09:15;15.57;;;9.47;;
4377;SDS011;2203;53.686;9.994;2022-11-15T17:11:43;17.50;;;9.83;;
4377;SDS011;2203;53.686;9.994;2022-11-15T17:14:09;19.83;;;9.20;;
4377;SDS011;2203;53.686;9.994;2022-11-15T17:16:35;18.60;;;10.47;;
4377;SDS011;2203;53.686;9.994;2022-11-15T17:19:02;18.40;;;11.07;;